Terminal Aerodrome Forecast
Issued by NWS

Home | Current Version | Previous Version | Text Only | Print | Product List | Glossary On
Versions: 1 2 3 4 5 6 7 8 9 10 11 12 13 14 15 16 17 18 19
000
FTUS45 KBYZ 260635 AAA
TAFLVM
TAF AMD
KLVM 260635Z 2607/2706 09008KT P6SM VCSH BKN005
      TEMPO 2607/2610 SCT005
     FM261000 24008KT P6SM SCT005 BKN025
     FM261800 24014KT P6SM VCTS BKN050CB
     FM270300 27006KT P6SM VCSH BKN030=

USA.gov is the U.S. government's official web portal to all federal, state and local government web resources and services.